sensor_id;sensor_type;location;lat;lon;timestamp;P1;durP1;ratioP1;P2;durP2;ratioP2
45326;SDS011;31062;49.678;24.560;2022-07-22T00:02:12;4.22;;;1.80;;
45326;SDS011;31062;49.678;24.560;2022-07-22T00:04:57;5.63;;;2.00;;
45326;SDS011;31062;49.678;24.560;2022-07-22T00:07:43;4.97;;;1.95;;
45326;SDS011;31062;49.678;24.560;2022-07-22T00:10:28;3.80;;;1.88;;
45326;SDS011;31062;49.678;24.560;2022-07-22T00:13:13;4.38;;;1.98;;
45326;SDS011;31062;49.678;24.560;2022-07-22T00:15:59;4.53;;;2.85;;
45326;SDS011;31062;49.678;24.560;2022-07-22T00:18:45;2.38;;;2.00;;
45326;SDS011;31062;49.678;24.560;2022-07-22T00:21:31;3.53;;;2.20;;
45326;SDS011;31062;49.678;24.560;2022-07-22T00:24:17;3.53;;;2.35;;
45326;SDS011;31062;49.678;24.560;2022-07-22T00:27:03;3.13;;;2.47;;
45326;SDS011;31062;49.678;24.560;2022-07-22T00:29:48;4.47;;;2.75;;
45326;SDS011;31062;49.678;24.560;2022-07-22T00:32:34;5.35;;;2.22;;
45326;SDS011;31062;49.678;24.560;2022-07-22T00:35:21;4.10;;;2.15;;
45326;SDS011;31062;49.678;24.560;2022-07-22T00:38:06;4.47;;;1.92;;
45326;SDS011;31062;49.678;24.560;2022-07-22T00:40:51;2.92;;;2.30;;
45326;SDS011;31062;49.678;24.560;2022-07-22T00:43:51;2.15;;;1.95;;
45326;SDS011;31062;49.678;24.560;2022-07-22T00:46:40;4.95;;;1.73;;
45326;SDS011;31062;49.678;24.560;2022-07-22T00:49:26;3.33;;;1.75;;
45326;SDS011;31062;49.678;24.560;2022-07-22T00:52:12;2.47;;;1.70;;
45326;SDS011;31062;49.678;24.560;2022-07-22T00:54:58;3.33;;;2.20;;
45326;SDS011;31062;49.678;24.560;2022-07-22T00:57:44;4.22;;;2.28;;
45326;SDS011;31062;49.678;24.560;2022-07-22T01:00:30;4.45;;;2.03;;
45326;SDS011;31062;49.678;24.560;2022-07-22T01:03:15;5.13;;;2.28;;
45326;SDS011;31062;49.678;24.560;2022-07-22T01:06:01;2.83;;;2.25;;
45326;SDS011;31062;49.678;24.560;2022-07-22T01:08:48;2.50;;;2.00;;
45326;SDS011;31062;49.678;24.560;2022-07-22T01:11:36;4.38;;;2.90;;
45326;SDS011;31062;49.678;24.560;2022-07-22T01:14:21;6.20;;;1.80;;
45326;SDS011;31062;49.678;24.560;2022-07-22T01:17:07;4.72;;;2.08;;
45326;SDS011;31062;49.678;24.560;2022-07-22T01:19:52;3.50;;;1.60;;
45326;SDS011;31062;49.678;24.560;2022-07-22T01:22:38;7.85;;;1.80;;
45326;SDS011;31062;49.678;24.560;2022-07-22T01:25:24;3.45;;;1.92;;
45326;SDS011;31062;49.678;24.560;2022-07-22T01:28:10;8.60;;;1.80;;
45326;SDS011;31062;49.678;24.560;2022-07-22T01:30:56;3.85;;;2.47;;
45326;SDS011;31062;49.678;24.560;2022-07-22T01:33:42;2.50;;;2.08;;
45326;SDS011;31062;49.678;24.560;2022-07-22T01:36:28;2.53;;;2.13;;
45326;SDS011;31062;49.678;24.560;2022-07-22T01:39:14;4.38;;;2.10;;
45326;SDS011;31062;49.678;24.560;2022-07-22T01:42:00;4.75;;;2.45;;
45326;SDS011;31062;49.678;24.560;2022-07-22T01:44:47;2.83;;;2.22;;
45326;SDS011;31062;49.678;24.560;2022-07-22T01:47:32;5.25;;;1.90;;
45326;SDS011;31062;49.678;24.560;2022-07-22T01:50:18;2.60;;;1.90;;
45326;SDS011;31062;49.678;24.560;2022-07-22T01:53:04;3.30;;;1.98;;
45326;SDS011;31062;49.678;24.560;2022-07-22T01:55:49;6.18;;;2.83;;
45326;SDS011;31062;49.678;24.560;2022-07-22T01:58:36;4.22;;;1.98;;
45326;SDS011;31062;49.678;24.560;2022-07-22T02:01:28;4.68;;;1.90;;
45326;SDS011;31062;49.678;24.560;2022-07-22T02:04:14;3.20;;;2.03;;
45326;SDS011;31062;49.678;24.560;2022-07-22T02:07:00;2.65;;;2.13;;
45326;SDS011;31062;49.678;24.560;2022-07-22T02:09:46;6.45;;;1.95;;
45326;SDS011;31062;49.678;24.560;2022-07-22T02:12:32;6.68;;;2.00;;
45326;SDS011;31062;49.678;24.560;2022-07-22T02:15:18;4.63;;;1.85;;
45326;SDS011;31062;49.678;24.560;2022-07-22T02:18:14;3.60;;;2.28;;
45326;SDS011;31062;49.678;24.560;2022-07-22T02:21:01;2.83;;;1.63;;
45326;SDS011;31062;49.678;24.560;2022-07-22T02:23:47;1.60;;;1.50;;
45326;SDS011;31062;49.678;24.560;2022-07-22T02:26:33;8.35;;;2.00;;
45326;SDS011;31062;49.678;24.560;2022-07-22T02:29:19;4.45;;;1.50;;
45326;SDS011;31062;49.678;24.560;2022-07-22T02:32:05;3.65;;;1.88;;
45326;SDS011;31062;49.678;24.560;2022-07-22T02:34:51;7.20;;;2.45;;
45326;SDS011;31062;49.678;24.560;2022-07-22T02:37:36;5.15;;;2.03;;
45326;SDS011;31062;49.678;24.560;2022-07-22T02:40:24;5.10;;;2.08;;
45326;SDS011;31062;49.678;24.560;2022-07-22T02:43:10;4.07;;;2.13;;
45326;SDS011;31062;49.678;24.560;2022-07-22T02:45:57;8.88;;;2.17;;
45326;SDS011;31062;49.678;24.560;2022-07-22T02:48:42;4.43;;;2.25;;
45326;SDS011;31062;49.678;24.560;2022-07-22T02:51:31;5.55;;;2.25;;
45326;SDS011;31062;49.678;24.560;2022-07-22T02:54:16;4.18;;;1.92;;
45326;SDS011;31062;49.678;24.560;2022-07-22T02:57:02;4.90;;;2.25;;
45326;SDS011;31062;49.678;24.560;2022-07-22T02:59:48;5.53;;;2.38;;
45326;SDS011;31062;49.678;24.560;2022-07-22T03:02:33;4.50;;;2.13;;
45326;SDS011;31062;49.678;24.560;2022-07-22T03:05:18;5.43;;;2.10;;
45326;SDS011;31062;49.678;24.560;2022-07-22T03:08:10;4.22;;;2.20;;
45326;SDS011;31062;49.678;24.560;2022-07-22T03:10:56;6.40;;;2.35;;
45326;SDS011;31062;49.678;24.560;2022-07-22T03:13:43;4.03;;;1.83;;
45326;SDS011;31062;49.678;24.560;2022-07-22T03:16:28;6.88;;;2.00;;
45326;SDS011;31062;49.678;24.560;2022-07-22T03:19:14;3.88;;;1.95;;
45326;SDS011;31062;49.678;24.560;2022-07-22T03:22:04;6.47;;;1.75;;
45326;SDS011;31062;49.678;24.560;2022-07-22T03:24:51;10.35;;;2.20;;
45326;SDS011;31062;49.678;24.560;2022-07-22T03:27:36;5.65;;;2.03;;
45326;SDS011;31062;49.678;24.560;2022-07-22T03:30:22;5.55;;;1.42;;
45326;SDS011;31062;49.678;24.560;2022-07-22T03:33:08;2.88;;;1.92;;
45326;SDS011;31062;49.678;24.560;2022-07-22T03:35:57;4.57;;;2.22;;
45326;SDS011;31062;49.678;24.560;2022-07-22T03:38:43;6.88;;;2.30;;
45326;SDS011;31062;49.678;24.560;2022-07-22T03:41:28;4.25;;;2.10;;
45326;SDS011;31062;49.678;24.560;2022-07-22T03:44:14;4.32;;;2.75;;
45326;SDS011;31062;49.678;24.560;2022-07-22T03:47:00;3.05;;;1.85;;
45326;SDS011;31062;49.678;24.560;2022-07-22T03:49:46;4.10;;;1.90;;
45326;SDS011;31062;49.678;24.560;2022-07-22T03:52:34;4.65;;;2.03;;
45326;SDS011;31062;49.678;24.560;2022-07-22T03:55:23;3.30;;;1.73;;
45326;SDS011;31062;49.678;24.560;2022-07-22T03:58:12;4.85;;;1.90;;
45326;SDS011;31062;49.678;24.560;2022-07-22T04:00:57;4.93;;;2.28;;
45326;SDS011;31062;49.678;24.560;2022-07-22T04:03:43;2.53;;;2.17;;
45326;SDS011;31062;49.678;24.560;2022-07-22T04:06:43;4.47;;;1.85;;
45326;SDS011;31062;49.678;24.560;2022-07-22T04:09:36;3.17;;;2.40;;
45326;SDS011;31062;49.678;24.560;2022-07-22T04:12:22;4.80;;;2.20;;
45326;SDS011;31062;49.678;24.560;2022-07-22T04:15:27;7.32;;;2.67;;
45326;SDS011;31062;49.678;24.560;2022-07-22T04:18:12;5.82;;;2.60;;
45326;SDS011;31062;49.678;24.560;2022-07-22T04:20:58;7.90;;;3.53;;
45326;SDS011;31062;49.678;24.560;2022-07-22T04:23:50;3.13;;;2.83;;
45326;SDS011;31062;49.678;24.560;2022-07-22T04:26:44;6.95;;;3.35;;
45326;SDS011;31062;49.678;24.560;2022-07-22T04:29:30;5.20;;;2.95;;
45326;SDS011;31062;49.678;24.560;2022-07-22T04:32:15;6.43;;;4.35;;
45326;SDS011;31062;49.678;24.560;2022-07-22T04:35:00;3.88;;;2.53;;
45326;SDS011;31062;49.678;24.560;2022-07-22T04:37:47;4.60;;;2.83;;
45326;SDS011;31062;49.678;24.560;2022-07-22T04:40:32;5.65;;;3.20;;
45326;SDS011;31062;49.678;24.560;2022-07-22T04:43:18;6.38;;;3.30;;
45326;SDS011;31062;49.678;24.560;2022-07-22T04:46:04;6.32;;;3.03;;
45326;SDS011;31062;49.678;24.560;2022-07-22T04:48:52;6.32;;;2.92;;
45326;SDS011;31062;49.678;24.560;2022-07-22T04:51:38;6.80;;;2.78;;
45326;SDS011;31062;49.678;24.560;2022-07-22T04:54:29;4.20;;;2.60;;
45326;SDS011;31062;49.678;24.560;2022-07-22T04:57:16;7.40;;;3.10;;
45326;SDS011;31062;49.678;24.560;2022-07-22T05:00:02;8.98;;;3.40;;
45326;SDS011;31062;49.678;24.560;2022-07-22T05:02:59;10.55;;;2.90;;
45326;SDS011;31062;49.678;24.560;2022-07-22T05:05:45;6.55;;;3.00;;
45326;SDS011;31062;49.678;24.560;2022-07-22T05:08:38;3.08;;;2.78;;
45326;SDS011;31062;49.678;24.560;2022-07-22T05:11:23;11.90;;;2.67;;
45326;SDS011;31062;49.678;24.560;2022-07-22T05:14:09;6.47;;;2.83;;
45326;SDS011;31062;49.678;24.560;2022-07-22T05:16:54;3.72;;;2.70;;
45326;SDS011;31062;49.678;24.560;2022-07-22T05:19:40;7.13;;;2.90;;
45326;SDS011;31062;49.678;24.560;2022-07-22T05:22:29;5.28;;;3.45;;
45326;SDS011;31062;49.678;24.560;2022-07-22T05:25:24;8.73;;;2.92;;
45326;SDS011;31062;49.678;24.560;2022-07-22T05:28:10;5.55;;;2.80;;
45326;SDS011;31062;49.678;24.560;2022-07-22T05:30:59;3.47;;;2.80;;
45326;SDS011;31062;49.678;24.560;2022-07-22T05:33:45;8.73;;;2.97;;
45326;SDS011;31062;49.678;24.560;2022-07-22T05:37:00;10.00;;;3.00;;
45326;SDS011;31062;49.678;24.560;2022-07-22T05:39:46;7.07;;;2.78;;
45326;SDS011;31062;49.678;24.560;2022-07-22T05:42:32;6.68;;;3.10;;
45326;SDS011;31062;49.678;24.560;2022-07-22T05:45:17;8.10;;;2.50;;
45326;SDS011;31062;49.678;24.560;2022-07-22T05:48:03;11.32;;;2.80;;
45326;SDS011;31062;49.678;24.560;2022-07-22T05:50:50;6.43;;;2.90;;
45326;SDS011;31062;49.678;24.560;2022-07-22T05:53:36;16.65;;;3.28;;
45326;SDS011;31062;49.678;24.560;2022-07-22T05:56:22;3.50;;;2.80;;
45326;SDS011;31062;49.678;24.560;2022-07-22T05:59:08;6.57;;;2.80;;
45326;SDS011;31062;49.678;24.560;2022-07-22T06:01:54;8.80;;;3.35;;
45326;SDS011;31062;49.678;24.560;2022-07-22T06:05:09;6.40;;;2.88;;
45326;SDS011;31062;49.678;24.560;2022-07-22T06:07:59;5.22;;;3.10;;
45326;SDS011;31062;49.678;24.560;2022-07-22T06:10:56;6.03;;;3.20;;
45326;SDS011;31062;49.678;24.560;2022-07-22T06:13:42;5.35;;;2.90;;
45326;SDS011;31062;49.678;24.560;2022-07-22T06:16:28;5.43;;;2.70;;
45326;SDS011;31062;49.678;24.560;2022-07-22T06:19:18;3.33;;;2.85;;
45326;SDS011;31062;49.678;24.560;2022-07-22T06:22:04;7.07;;;2.88;;
45326;SDS011;31062;49.678;24.560;2022-07-22T06:24:50;3.28;;;2.67;;
45326;SDS011;31062;49.678;24.560;2022-07-22T06:27:36;11.68;;;3.08;;
45326;SDS011;31062;49.678;24.560;2022-07-22T06:30:23;8.13;;;3.55;;
45326;SDS011;31062;49.678;24.560;2022-07-22T06:33:09;6.13;;;3.30;;
45326;SDS011;31062;49.678;24.560;2022-07-22T06:35:55;7.38;;;3.35;;
45326;SDS011;31062;49.678;24.560;2022-07-22T06:38:42;8.55;;;3.25;;
45326;SDS011;31062;49.678;24.560;2022-07-22T06:42:00;7.50;;;3.30;;
45326;SDS011;31062;49.678;24.560;2022-07-22T06:45:05;7.28;;;2.97;;
45326;SDS011;31062;49.678;24.560;2022-07-22T06:48:13;6.45;;;3.10;;
45326;SDS011;31062;49.678;24.560;2022-07-22T06:50:59;5.10;;;3.10;;
45326;SDS011;31062;49.678;24.560;2022-07-22T06:53:46;5.40;;;3.08;;
45326;SDS011;31062;49.678;24.560;2022-07-22T06:56:33;7.35;;;3.00;;
45326;SDS011;31062;49.678;24.560;2022-07-22T06:59:19;6.65;;;2.90;;
45326;SDS011;31062;49.678;24.560;2022-07-22T07:02:06;5.70;;;3.58;;
45326;SDS011;31062;49.678;24.560;2022-07-22T07:04:55;5.93;;;2.97;;
45326;SDS011;31062;49.678;24.560;2022-07-22T07:07:41;5.32;;;3.45;;
45326;SDS011;31062;49.678;24.560;2022-07-22T07:10:28;4.85;;;3.22;;
45326;SDS011;31062;49.678;24.560;2022-07-22T07:13:21;5.32;;;3.25;;
45326;SDS011;31062;49.678;24.560;2022-07-22T07:16:06;7.60;;;3.28;;
45326;SDS011;31062;49.678;24.560;2022-07-22T07:18:52;6.40;;;3.58;;
45326;SDS011;31062;49.678;24.560;2022-07-22T07:21:39;4.63;;;3.15;;
45326;SDS011;31062;49.678;24.560;2022-07-22T07:24:24;11.48;;;3.20;;
45326;SDS011;31062;49.678;24.560;2022-07-22T07:27:10;5.28;;;2.95;;
45326;SDS011;31062;49.678;24.560;2022-07-22T07:29:57;8.50;;;2.90;;
45326;SDS011;31062;49.678;24.560;2022-07-22T07:32:42;10.50;;;3.15;;
45326;SDS011;31062;49.678;24.560;2022-07-22T07:35:28;4.88;;;2.97;;
45326;SDS011;31062;49.678;24.560;2022-07-22T07:38:16;4.88;;;3.03;;
45326;SDS011;31062;49.678;24.560;2022-07-22T07:41:03;12.00;;;3.83;;
45326;SDS011;31062;49.678;24.560;2022-07-22T07:43:49;3.85;;;2.33;;
45326;SDS011;31062;49.678;24.560;2022-07-22T07:46:36;8.32;;;2.58;;
45326;SDS011;31062;49.678;24.560;2022-07-22T07:49:21;7.07;;;2.60;;
45326;SDS011;31062;49.678;24.560;2022-07-22T07:52:07;4.68;;;2.80;;
45326;SDS011;31062;49.678;24.560;2022-07-22T07:54:57;5.22;;;2.88;;
45326;SDS011;31062;49.678;24.560;2022-07-22T07:58:01;10.52;;;3.45;;
45326;SDS011;31062;49.678;24.560;2022-07-22T08:00:47;5.68;;;2.50;;
45326;SDS011;31062;49.678;24.560;2022-07-22T08:03:33;4.63;;;2.45;;
45326;SDS011;31062;49.678;24.560;2022-07-22T08:06:19;4.28;;;3.03;;
45326;SDS011;31062;49.678;24.560;2022-07-22T08:09:05;4.30;;;2.97;;
45326;SDS011;31062;49.678;24.560;2022-07-22T08:11:57;3.92;;;2.40;;
45326;SDS011;31062;49.678;24.560;2022-07-22T08:14:59;5.75;;;2.42;;
45326;SDS011;31062;49.678;24.560;2022-07-22T08:18:08;4.78;;;2.35;;
45326;SDS011;31062;49.678;24.560;2022-07-22T08:20:54;3.88;;;2.53;;
45326;SDS011;31062;49.678;24.560;2022-07-22T08:23:52;2.70;;;2.35;;
45326;SDS011;31062;49.678;24.560;2022-07-22T08:26:37;4.95;;;2.55;;
45326;SDS011;31062;49.678;24.560;2022-07-22T08:29:23;3.60;;;2.40;;
45326;SDS011;31062;49.678;24.560;2022-07-22T08:32:09;2.92;;;2.40;;
45326;SDS011;31062;49.678;24.560;2022-07-22T08:34:55;2.72;;;2.22;;
45326;SDS011;31062;49.678;24.560;2022-07-22T08:37:40;4.38;;;2.08;;
45326;SDS011;31062;49.678;24.560;2022-07-22T08:40:26;5.18;;;2.80;;
45326;SDS011;31062;49.678;24.560;2022-07-22T08:43:12;2.92;;;2.58;;
45326;SDS011;31062;49.678;24.560;2022-07-22T08:45:57;3.42;;;2.55;;
45326;SDS011;31062;49.678;24.560;2022-07-22T08:48:46;4.47;;;2.72;;
45326;SDS011;31062;49.678;24.560;2022-07-22T08:52:09;3.58;;;2.33;;
45326;SDS011;31062;49.678;24.560;2022-07-22T08:55:03;6.60;;;2.50;;
45326;SDS011;31062;49.678;24.560;2022-07-22T08:57:50;3.15;;;2.95;;
45326;SDS011;31062;49.678;24.560;2022-07-22T09:00:36;9.82;;;2.25;;
45326;SDS011;31062;49.678;24.560;2022-07-22T09:03:22;2.78;;;2.58;;
45326;SDS011;31062;49.678;24.560;2022-07-22T09:06:12;4.93;;;2.47;;
45326;SDS011;31062;49.678;24.560;2022-07-22T09:09:02;3.80;;;2.60;;
45326;SDS011;31062;49.678;24.560;2022-07-22T09:12:20;5.65;;;2.90;;
45326;SDS011;31062;49.678;24.560;2022-07-22T09:15:30;7.82;;;2.70;;
45326;SDS011;31062;49.678;24.560;2022-07-22T09:18:59;6.13;;;2.92;;
45326;SDS011;31062;49.678;24.560;2022-07-22T09:22:01;8.48;;;2.70;;
45326;SDS011;31062;49.678;24.560;2022-07-22T09:25:21;6.68;;;3.58;;
45326;SDS011;31062;49.678;24.560;2022-07-22T09:28:33;4.57;;;2.75;;
45326;SDS011;31062;49.678;24.560;2022-07-22T09:31:38;5.47;;;2.90;;
45326;SDS011;31062;49.678;24.560;2022-07-22T09:34:34;8.77;;;2.90;;
45326;SDS011;31062;49.678;24.560;2022-07-22T09:37:33;4.95;;;2.75;;
45326;SDS011;31062;49.678;24.560;2022-07-22T09:40:24;4.78;;;2.53;;
45326;SDS011;31062;49.678;24.560;2022-07-22T09:43:18;5.72;;;3.03;;
45326;SDS011;31062;49.678;24.560;2022-07-22T09:46:05;5.82;;;2.50;;
45326;SDS011;31062;49.678;24.560;2022-07-22T09:49:09;11.15;;;2.72;;
45326;SDS011;31062;49.678;24.560;2022-07-22T09:52:34;2.75;;;2.53;;
45326;SDS011;31062;49.678;24.560;2022-07-22T09:55:25;4.53;;;2.67;;
45326;SDS011;31062;49.678;24.560;2022-07-22T09:58:12;13.98;;;2.90;;
45326;SDS011;31062;49.678;24.560;2022-07-22T10:01:00;7.90;;;2.95;;
45326;SDS011;31062;49.678;24.560;2022-07-22T10:03:50;5.55;;;2.40;;
45326;SDS011;31062;49.678;24.560;2022-07-22T10:06:40;6.22;;;2.40;;
45326;SDS011;31062;49.678;24.560;2022-07-22T10:09:33;5.07;;;2.70;;
45326;SDS011;31062;49.678;24.560;2022-07-22T10:12:21;3.60;;;2.58;;
45326;SDS011;31062;49.678;24.560;2022-07-22T10:15:08;3.25;;;2.63;;
45326;SDS011;31062;49.678;24.560;2022-07-22T10:17:56;9.25;;;2.50;;
45326;SDS011;31062;49.678;24.560;2022-07-22T10:20:43;6.43;;;3.33;;
45326;SDS011;31062;49.678;24.560;2022-07-22T10:23:30;4.75;;;2.78;;
45326;SDS011;31062;49.678;24.560;2022-07-22T10:26:15;5.25;;;2.92;;
45326;SDS011;31062;49.678;24.560;2022-07-22T10:29:23;4.40;;;2.70;;
45326;SDS011;31062;49.678;24.560;2022-07-22T10:37:48;3.15;;;2.22;;
45326;SDS011;31062;49.678;24.560;2022-07-22T10:49:36;5.65;;;2.80;;
45326;SDS011;31062;49.678;24.560;2022-07-22T10:52:21;7.25;;;3.00;;
45326;SDS011;31062;49.678;24.560;2022-07-22T10:55:19;10.30;;;3.67;;
45326;SDS011;31062;49.678;24.560;2022-07-22T11:01:25;5.50;;;2.65;;
45326;SDS011;31062;49.678;24.560;2022-07-22T11:04:15;4.25;;;2.30;;
45326;SDS011;31062;49.678;24.560;2022-07-22T11:07:11;4.85;;;2.83;;
45326;SDS011;31062;49.678;24.560;2022-07-22T11:10:10;7.90;;;2.75;;
45326;SDS011;31062;49.678;24.560;2022-07-22T11:13:03;6.72;;;3.15;;
45326;SDS011;31062;49.678;24.560;2022-07-22T11:15:50;8.85;;;2.90;;
45326;SDS011;31062;49.678;24.560;2022-07-22T11:18:45;7.25;;;2.63;;
45326;SDS011;31062;49.678;24.560;2022-07-22T11:21:31;6.95;;;2.95;;
45326;SDS011;31062;49.678;24.560;2022-07-22T11:24:28;4.82;;;2.58;;
45326;SDS011;31062;49.678;24.560;2022-07-22T11:27:17;4.55;;;2.58;;
45326;SDS011;31062;49.678;24.560;2022-07-22T11:30:07;4.60;;;2.83;;
45326;SDS011;31062;49.678;24.560;2022-07-22T11:32:53;3.75;;;2.70;;
45326;SDS011;31062;49.678;24.560;2022-07-22T11:35:39;5.45;;;3.17;;
45326;SDS011;31062;49.678;24.560;2022-07-22T11:38:24;4.78;;;2.70;;
45326;SDS011;31062;49.678;24.560;2022-07-22T11:41:28;7.68;;;3.10;;
45326;SDS011;31062;49.678;24.560;2022-07-22T11:44:19;3.83;;;2.75;;
45326;SDS011;31062;49.678;24.560;2022-07-22T11:47:11;4.18;;;2.88;;
45326;SDS011;31062;49.678;24.560;2022-07-22T11:49:57;4.38;;;3.03;;
45326;SDS011;31062;49.678;24.560;2022-07-22T11:52:52;4.35;;;2.78;;
45326;SDS011;31062;49.678;24.560;2022-07-22T11:55:38;4.75;;;2.92;;
45326;SDS011;31062;49.678;24.560;2022-07-22T11:58:33;6.55;;;2.67;;
45326;SDS011;31062;49.678;24.560;2022-07-22T12:01:26;4.80;;;2.92;;
45326;SDS011;31062;49.678;24.560;2022-07-22T12:04:19;6.63;;;2.22;;
45326;SDS011;31062;49.678;24.560;2022-07-22T12:07:11;8.75;;;2.60;;
45326;SDS011;31062;49.678;24.560;2022-07-22T12:09:57;6.20;;;2.35;;
45326;SDS011;31062;49.678;24.560;2022-07-22T12:12:42;7.43;;;2.67;;
45326;SDS011;31062;49.678;24.560;2022-07-22T12:15:28;10.63;;;3.55;;
45326;SDS011;31062;49.678;24.560;2022-07-22T12:18:31;6.47;;;2.50;;
45326;SDS011;31062;49.678;24.560;2022-07-22T12:21:25;8.70;;;2.80;;
45326;SDS011;31062;49.678;24.560;2022-07-22T12:24:12;8.95;;;2.65;;
45326;SDS011;31062;49.678;24.560;2022-07-22T12:27:04;8.55;;;3.20;;
45326;SDS011;31062;49.678;24.560;2022-07-22T12:29:51;6.95;;;3.70;;
45326;SDS011;31062;49.678;24.560;2022-07-22T12:32:37;8.63;;;2.78;;
45326;SDS011;31062;49.678;24.560;2022-07-22T12:35:37;4.43;;;2.85;;
45326;SDS011;31062;49.678;24.560;2022-07-22T12:38:22;4.13;;;2.33;;
45326;SDS011;31062;49.678;24.560;2022-07-22T12:41:20;7.35;;;2.58;;
45326;SDS011;31062;49.678;24.560;2022-07-22T12:44:21;4.03;;;2.70;;
45326;SDS011;31062;49.678;24.560;2022-07-22T12:47:08;5.50;;;2.58;;
45326;SDS011;31062;49.678;24.560;2022-07-22T12:49:53;8.88;;;3.08;;
45326;SDS011;31062;49.678;24.560;2022-07-22T12:52:46;5.63;;;2.67;;
45326;SDS011;31062;49.678;24.560;2022-07-22T12:55:53;7.82;;;3.22;;
45326;SDS011;31062;49.678;24.560;2022-07-22T12:58:41;4.60;;;3.63;;
45326;SDS011;31062;49.678;24.560;2022-07-22T13:01:26;5.32;;;3.00;;
45326;SDS011;31062;49.678;24.560;2022-07-22T13:04:11;4.20;;;3.00;;
45326;SDS011;31062;49.678;24.560;2022-07-22T13:06:57;7.38;;;3.28;;
45326;SDS011;31062;49.678;24.560;2022-07-22T13:09:42;7.88;;;3.05;;
45326;SDS011;31062;49.678;24.560;2022-07-22T13:12:27;13.55;;;3.22;;
45326;SDS011;31062;49.678;24.560;2022-07-22T13:15:13;5.50;;;2.70;;
45326;SDS011;31062;49.678;24.560;2022-07-22T13:17:58;5.07;;;2.65;;
45326;SDS011;31062;49.678;24.560;2022-07-22T13:20:45;3.80;;;3.10;;
45326;SDS011;31062;49.678;24.560;2022-07-22T13:23:32;7.68;;;4.50;;
45326;SDS011;31062;49.678;24.560;2022-07-22T13:26:17;9.60;;;6.93;;
45326;SDS011;31062;49.678;24.560;2022-07-22T13:29:02;14.93;;;3.28;;
45326;SDS011;31062;49.678;24.560;2022-07-22T13:31:47;5.63;;;3.08;;
45326;SDS011;31062;49.678;24.560;2022-07-22T13:34:54;13.05;;;2.97;;
45326;SDS011;31062;49.678;24.560;2022-07-22T13:37:39;4.93;;;3.15;;
45326;SDS011;31062;49.678;24.560;2022-07-22T13:40:25;4.28;;;2.70;;
45326;SDS011;31062;49.678;24.560;2022-07-22T13:43:10;5.30;;;2.90;;
45326;SDS011;31062;49.678;24.560;2022-07-22T13:45:59;4.15;;;2.72;;
45326;SDS011;31062;49.678;24.560;2022-07-22T13:48:45;11.00;;;3.20;;
45326;SDS011;31062;49.678;24.560;2022-07-22T13:51:30;8.93;;;2.83;;
45326;SDS011;31062;49.678;24.560;2022-07-22T13:54:20;5.50;;;3.25;;
45326;SDS011;31062;49.678;24.560;2022-07-22T13:57:05;11.30;;;2.90;;
45326;SDS011;31062;49.678;24.560;2022-07-22T13:59:51;5.22;;;2.88;;
45326;SDS011;31062;49.678;24.560;2022-07-22T14:02:37;11.30;;;2.55;;
45326;SDS011;31062;49.678;24.560;2022-07-22T14:05:23;7.28;;;2.90;;
45326;SDS011;31062;49.678;24.560;2022-07-22T14:08:09;5.00;;;2.90;;
45326;SDS011;31062;49.678;24.560;2022-07-22T14:10:54;4.32;;;3.00;;
45326;SDS011;31062;49.678;24.560;2022-07-22T14:13:40;5.68;;;3.17;;
45326;SDS011;31062;49.678;24.560;2022-07-22T14:16:26;7.97;;;3.40;;
45326;SDS011;31062;49.678;24.560;2022-07-22T14:19:40;5.35;;;2.92;;
45326;SDS011;31062;49.678;24.560;2022-07-22T14:22:26;7.45;;;3.22;;
45326;SDS011;31062;49.678;24.560;2022-07-22T14:25:12;6.07;;;2.70;;
45326;SDS011;31062;49.678;24.560;2022-07-22T14:27:57;5.25;;;2.70;;
45326;SDS011;31062;49.678;24.560;2022-07-22T14:31:03;8.23;;;4.68;;
45326;SDS011;31062;49.678;24.560;2022-07-22T14:33:48;6.60;;;2.75;;
45326;SDS011;31062;49.678;24.560;2022-07-22T14:36:34;5.10;;;2.80;;
45326;SDS011;31062;49.678;24.560;2022-07-22T14:39:19;9.73;;;3.72;;
45326;SDS011;31062;49.678;24.560;2022-07-22T14:42:04;4.35;;;3.08;;
45326;SDS011;31062;49.678;24.560;2022-07-22T14:44:50;4.40;;;2.88;;
45326;SDS011;31062;49.678;24.560;2022-07-22T14:47:37;3.90;;;3.00;;
45326;SDS011;31062;49.678;24.560;2022-07-22T14:50:23;6.35;;;3.50;;
45326;SDS011;31062;49.678;24.560;2022-07-22T14:53:08;7.00;;;3.17;;
45326;SDS011;31062;49.678;24.560;2022-07-22T14:55:53;3.30;;;2.88;;
45326;SDS011;31062;49.678;24.560;2022-07-22T14:58:38;5.18;;;3.10;;
45326;SDS011;31062;49.678;24.560;2022-07-22T15:01:24;6.88;;;3.00;;
45326;SDS011;31062;49.678;24.560;2022-07-22T15:04:11;6.97;;;3.65;;
45326;SDS011;31062;49.678;24.560;2022-07-22T15:06:57;9.63;;;3.47;;
45326;SDS011;31062;49.678;24.560;2022-07-22T15:09:42;5.60;;;2.50;;
45326;SDS011;31062;49.678;24.560;2022-07-22T15:12:28;6.00;;;2.97;;
45326;SDS011;31062;49.678;24.560;2022-07-22T15:15:32;10.82;;;3.10;;
45326;SDS011;31062;49.678;24.560;2022-07-22T15:18:18;3.58;;;3.05;;
45326;SDS011;31062;49.678;24.560;2022-07-22T15:21:03;12.48;;;3.47;;
45326;SDS011;31062;49.678;24.560;2022-07-22T15:23:49;11.98;;;3.80;;
45326;SDS011;31062;49.678;24.560;2022-07-22T15:26:34;5.60;;;3.08;;
45326;SDS011;31062;49.678;24.560;2022-07-22T15:29:20;7.32;;;2.90;;
45326;SDS011;31062;49.678;24.560;2022-07-22T15:32:05;7.20;;;2.88;;
45326;SDS011;31062;49.678;24.560;2022-07-22T15:34:51;6.25;;;3.25;;
45326;SDS011;31062;49.678;24.560;2022-07-22T15:37:36;12.93;;;3.30;;
45326;SDS011;31062;49.678;24.560;2022-07-22T15:40:23;5.25;;;2.97;;
45326;SDS011;31062;49.678;24.560;2022-07-22T15:43:10;10.05;;;3.70;;
45326;SDS011;31062;49.678;24.560;2022-07-22T15:45:55;4.35;;;2.88;;
45326;SDS011;31062;49.678;24.560;2022-07-22T15:48:41;8.80;;;3.10;;
45326;SDS011;31062;49.678;24.560;2022-07-22T15:51:26;5.97;;;3.03;;
45326;SDS011;31062;49.678;24.560;2022-07-22T15:54:12;5.40;;;2.72;;
45326;SDS011;31062;49.678;24.560;2022-07-22T15:56:58;6.30;;;2.97;;
45326;SDS011;31062;49.678;24.560;2022-07-22T16:00:02;10.85;;;3.20;;
45326;SDS011;31062;49.678;24.560;2022-07-22T16:02:56;5.57;;;3.08;;
45326;SDS011;31062;49.678;24.560;2022-07-22T16:05:41;9.25;;;2.80;;
45326;SDS011;31062;49.678;24.560;2022-07-22T16:08:26;5.28;;;3.30;;
45326;SDS011;31062;49.678;24.560;2022-07-22T16:11:12;6.70;;;3.28;;
45326;SDS011;31062;49.678;24.560;2022-07-22T16:13:58;9.63;;;3.10;;
45326;SDS011;31062;49.678;24.560;2022-07-22T16:16:43;12.02;;;3.50;;
45326;SDS011;31062;49.678;24.560;2022-07-22T16:19:29;8.98;;;3.58;;
45326;SDS011;31062;49.678;24.560;2022-07-22T16:22:14;11.10;;;3.53;;
45326;SDS011;31062;49.678;24.560;2022-07-22T16:25:01;9.77;;;3.35;;
45326;SDS011;31062;49.678;24.560;2022-07-22T16:27:46;3.40;;;3.08;;
45326;SDS011;31062;49.678;24.560;2022-07-22T16:30:31;6.05;;;3.28;;
45326;SDS011;31062;49.678;24.560;2022-07-22T16:33:17;13.77;;;3.50;;
45326;SDS011;31062;49.678;24.560;2022-07-22T16:36:03;10.63;;;4.00;;
45326;SDS011;31062;49.678;24.560;2022-07-22T16:38:49;8.25;;;3.47;;
45326;SDS011;31062;49.678;24.560;2022-07-22T16:41:35;9.75;;;3.35;;
45326;SDS011;31062;49.678;24.560;2022-07-22T16:44:20;6.97;;;3.70;;
45326;SDS011;31062;49.678;24.560;2022-07-22T16:47:06;6.40;;;3.33;;
45326;SDS011;31062;49.678;24.560;2022-07-22T16:49:53;5.45;;;3.20;;
45326;SDS011;31062;49.678;24.560;2022-07-22T16:52:38;3.72;;;3.08;;
45326;SDS011;31062;49.678;24.560;2022-07-22T16:55:24;4.10;;;3.50;;
45326;SDS011;31062;49.678;24.560;2022-07-22T16:58:09;9.60;;;3.55;;
45326;SDS011;31062;49.678;24.560;2022-07-22T17:00:55;6.72;;;3.53;;